Time;durP1;ratioP1;P1;durP2;ratioP2;P2;SDS_P1;SDS_P2;PMS_P1;PMS_P2;Temp;Humidity;BMP_temperature;BMP_pressure;BME280_temperature;BME280_humidity;BME280_pressure;Samples;Min_cycle;Max_cycle;Signal;HPM_P1;HPM_P2
2022/04/14 00:00:19;;;;;;;38.05;20.40;;;;;;;;;;5006087;28;20404;-77
2022/04/14 00:02:45;;;;;;;36.17;20.05;;;;;;;;;;5003368;28;20373;-77
2022/04/14 00:05:11;;;;;;;37.97;20.25;;;;;;;;;;5008601;28;20060;-77
2022/04/14 00:07:37;;;;;;;40.75;20.83;;;;;;;;;;5007758;28;20033;-76
2022/04/14 00:10:04;;;;;;;37.10;19.95;;;;;;;;;;5007715;28;20045;-76
2022/04/14 00:12:30;;;;;;;36.58;19.45;;;;;;;;;;5007471;28;20064;-76
2022/04/14 00:14:56;;;;;;;39.42;19.60;;;;;;;;;;5007170;28;20152;-76
2022/04/14 00:17:22;;;;;;;36.13;20.23;;;;;;;;;;5003967;28;20014;-76
2022/04/14 00:19:48;;;;;;;38.03;19.25;;;;;;;;;;5006083;28;20049;-76
2022/04/14 00:22:14;;;;;;;34.20;19.52;;;;;;;;;;5001443;28;20115;-77
2022/04/14 00:24:40;;;;;;;36.42;19.73;;;;;;;;;;5003157;28;20022;-77
2022/04/14 00:27:06;;;;;;;33.63;19.40;;;;;;;;;;5003434;28;20034;-76
2022/04/14 00:29:32;;;;;;;36.03;19.15;;;;;;;;;;5000295;28;20026;-77
2022/04/14 00:31:57;;;;;;;39.10;20.38;;;;;;;;;;5005890;28;20073;-76
2022/04/14 00:34:23;;;;;;;33.58;19.33;;;;;;;;;;5004596;28;20037;-76
2022/04/14 00:36:49;;;;;;;30.13;19.52;;;;;;;;;;5000462;28;20366;-77
2022/04/14 00:39:15;;;;;;;38.05;18.90;;;;;;;;;;5002885;28;20243;-76
2022/04/14 00:41:41;;;;;;;36.85;20.63;;;;;;;;;;5001545;28;20023;-76
2022/04/14 00:44:07;;;;;;;40.15;19.75;;;;;;;;;;5000125;28;20038;-77
2022/04/14 00:46:33;;;;;;;36.10;19.40;;;;;;;;;;5007155;28;20025;-76
2022/04/14 00:48:59;;;;;;;31.10;18.90;;;;;;;;;;5000336;28;20026;-77
2022/04/14 00:51:25;;;;;;;32.58;19.05;;;;;;;;;;5007436;28;20030;-76
2022/04/14 00:53:51;;;;;;;31.02;19.17;;;;;;;;;;5010499;28;20042;-77
2022/04/14 00:56:17;;;;;;;32.83;18.70;;;;;;;;;;5009210;28;20048;-77
2022/04/14 00:58:43;;;;;;;38.22;18.80;;;;;;;;;;5011319;28;20151;-76
2022/04/14 01:01:09;;;;;;;34.50;18.15;;;;;;;;;;5009554;28;20117;-76
2022/04/14 01:03:36;;;;;;;30.38;17.63;;;;;;;;;;5009084;28;20540;-76
2022/04/14 01:06:02;;;;;;;30.48;17.67;;;;;;;;;;5008660;28;20045;-77
2022/04/14 01:08:29;;;;;;;31.60;17.90;;;;;;;;;;5009816;28;22231;-77
2022/04/14 01:10:57;;;;;;;29.65;18.23;;;;;;;;;;5008800;28;20461;-76
2022/04/14 01:13:23;;;;;;;34.60;18.13;;;;;;;;;;5005958;28;20037;-77
2022/04/14 01:15:49;;;;;;;29.20;17.75;;;;;;;;;;5008450;28;20045;-76
2022/04/14 01:18:15;;;;;;;29.80;17.48;;;;;;;;;;5007470;28;20032;-76
2022/04/14 01:20:42;;;;;;;28.65;18.10;;;;;;;;;;5015613;28;20052;-77
2022/04/14 01:23:08;;;;;;;33.83;18.65;;;;;;;;;;5005036;28;20034;-77
2022/04/14 01:25:35;;;;;;;34.08;18.25;;;;;;;;;;5007282;28;20030;-77
2022/04/14 01:28:01;;;;;;;32.78;17.77;;;;;;;;;;5015898;28;20036;-77
2022/04/14 01:30:27;;;;;;;33.33;17.27;;;;;;;;;;5007936;28;20029;-76
2022/04/14 01:32:53;;;;;;;29.55;17.10;;;;;;;;;;5013825;28;20022;-76
2022/04/14 01:35:19;;;;;;;29.10;16.75;;;;;;;;;;5000185;28;20053;-76
2022/04/14 01:37:45;;;;;;;27.75;16.13;;;;;;;;;;5004643;28;20033;-76
2022/04/14 01:40:11;;;;;;;29.40;16.70;;;;;;;;;;5010090;28;20485;-76
2022/04/14 01:42:37;;;;;;;25.58;16.60;;;;;;;;;;5009654;28;20534;-76
2022/04/14 01:45:03;;;;;;;31.95;17.88;;;;;;;;;;5000488;28;20032;-76
2022/04/14 01:47:29;;;;;;;26.98;17.30;;;;;;;;;;5007135;28;20388;-76
2022/04/14 01:49:55;;;;;;;28.38;16.17;;;;;;;;;;5005294;28;20030;-76
2022/04/14 01:52:21;;;;;;;32.03;16.63;;;;;;;;;;5000971;28;20026;-76
2022/04/14 01:54:47;;;;;;;32.70;17.23;;;;;;;;;;5000827;28;20036;-76
2022/04/14 01:57:13;;;;;;;26.45;15.52;;;;;;;;;;5010199;28;20467;-76
2022/04/14 01:59:38;;;;;;;30.38;16.50;;;;;;;;;;5005416;28;20018;-76
2022/04/14 02:02:04;;;;;;;28.38;16.55;;;;;;;;;;5006148;28;20465;-77
2022/04/14 02:04:30;;;;;;;28.13;17.17;;;;;;;;;;5001084;28;20105;-76
2022/04/14 02:06:56;;;;;;;31.08;16.33;;;;;;;;;;5010289;28;20410;-76
2022/04/14 02:09:22;;;;;;;29.42;16.20;;;;;;;;;;5007250;28;20060;-76
2022/04/14 02:11:48;;;;;;;28.77;16.02;;;;;;;;;;5004854;28;20044;-76
2022/04/14 02:14:14;;;;;;;30.77;17.30;;;;;;;;;;5005168;28;20046;-76
2022/04/14 02:16:40;;;;;;;27.85;16.60;;;;;;;;;;5001009;28;20038;-76
2022/04/14 02:19:06;;;;;;;31.85;16.30;;;;;;;;;;5007120;28;20076;-76
2022/04/14 02:21:32;;;;;;;27.60;15.55;;;;;;;;;;5006522;28;20026;-76
2022/04/14 02:23:57;;;;;;;28.17;16.52;;;;;;;;;;5006797;28;20053;-76
2022/04/14 02:26:23;;;;;;;31.08;16.63;;;;;;;;;;5002667;28;20019;-76
2022/04/14 02:28:49;;;;;;;30.08;16.73;;;;;;;;;;5009200;28;20034;-76
2022/04/14 02:31:15;;;;;;;27.20;15.75;;;;;;;;;;4999962;28;20030;-76
2022/04/14 02:33:41;;;;;;;30.63;16.88;;;;;;;;;;5005284;28;20033;-76
2022/04/14 02:36:07;;;;;;;27.67;16.33;;;;;;;;;;4998646;28;20107;-76
2022/04/14 02:38:33;;;;;;;32.53;17.10;;;;;;;;;;5005986;28;20034;-76
2022/04/14 02:40:59;;;;;;;26.10;15.73;;;;;;;;;;5012443;28;20026;-76
2022/04/14 02:43:24;;;;;;;29.23;16.35;;;;;;;;;;5006228;28;20392;-76
2022/04/14 02:45:50;;;;;;;25.35;15.57;;;;;;;;;;5009244;28;20048;-76
2022/04/14 02:48:16;;;;;;;25.33;14.80;;;;;;;;;;5001807;28;20108;-76
2022/04/14 02:50:43;;;;;;;28.98;14.13;;;;;;;;;;5002285;28;20057;-76
2022/04/14 02:53:10;;;;;;;33.47;14.27;;;;;;;;;;5002955;28;20500;-76
2022/04/14 02:55:36;;;;;;;25.60;14.18;;;;;;;;;;5005325;28;20428;-76
2022/04/14 02:58:02;;;;;;;24.25;14.65;;;;;;;;;;5008274;28;20041;-76
2022/04/14 03:00:28;;;;;;;24.95;14.20;;;;;;;;;;5002441;28;20462;-76
2022/04/14 03:02:54;;;;;;;22.98;13.88;;;;;;;;;;5001019;28;20037;-76
2022/04/14 03:05:20;;;;;;;21.33;13.93;;;;;;;;;;5008915;28;20036;-76
2022/04/14 03:07:46;;;;;;;21.77;13.88;;;;;;;;;;5001553;28;20057;-76
2022/04/14 03:10:12;;;;;;;22.58;13.70;;;;;;;;;;4999713;28;20057;-77
2022/04/14 03:12:42;;;;;;;21.15;12.75;;;;;;;;;;5008726;28;20026;-76
2022/04/14 03:15:08;;;;;;;22.52;13.60;;;;;;;;;;5015892;28;20021;-76
2022/04/14 03:17:35;;;;;;;21.30;12.88;;;;;;;;;;5008085;28;20045;-76
2022/04/14 03:20:01;;;;;;;18.10;12.30;;;;;;;;;;5008966;28;20014;-76
2022/04/14 03:22:26;;;;;;;16.48;11.18;;;;;;;;;;5008664;28;20049;-79
2022/04/14 03:24:55;;;;;;;22.17;11.63;;;;;;;;;;5004672;28;20026;-78
2022/04/14 03:27:21;;;;;;;16.85;10.43;;;;;;;;;;5005280;28;20113;-76
2022/04/14 03:29:47;;;;;;;22.63;11.60;;;;;;;;;;5002751;28;20121;-78
2022/04/14 03:32:13;;;;;;;21.10;10.65;;;;;;;;;;5009183;28;20523;-79
2022/04/14 03:34:38;;;;;;;15.10;10.07;;;;;;;;;;5012736;28;20495;-82
2022/04/14 03:37:07;;;;;;;17.73;10.38;;;;;;;;;;5004607;28;20029;-81
2022/04/14 03:39:33;;;;;;;14.98;10.25;;;;;;;;;;5002979;28;20033;-81
2022/04/14 03:41:59;;;;;;;14.77;10.00;;;;;;;;;;5009242;28;20040;-81
2022/04/14 03:44:25;;;;;;;17.92;10.05;;;;;;;;;;5004106;28;20026;-81
2022/04/14 03:46:51;;;;;;;14.20;10.00;;;;;;;;;;5004374;28;20429;-81
2022/04/14 03:49:17;;;;;;;16.02;10.13;;;;;;;;;;5017526;28;20029;-80
2022/04/14 03:51:43;;;;;;;14.65;9.15;;;;;;;;;;5009795;28;20393;-79
2022/04/14 03:54:08;;;;;;;14.35;9.80;;;;;;;;;;5006588;28;20025;-80
2022/04/14 03:56:34;;;;;;;15.38;9.55;;;;;;;;;;5009087;28;20399;-79
2022/04/14 03:59:00;;;;;;;12.35;9.13;;;;;;;;;;5000803;28;20038;-78
2022/04/14 04:01:26;;;;;;;15.63;9.15;;;;;;;;;;5003984;28;20078;-78
2022/04/14 04:03:52;;;;;;;16.58;9.48;;;;;;;;;;5001349;28;20025;-78
2022/04/14 04:06:18;;;;;;;14.88;9.05;;;;;;;;;;4999819;28;20053;-78
2022/04/14 04:08:44;;;;;;;13.93;9.50;;;;;;;;;;4990339;28;20499;-78
2022/04/14 04:11:10;;;;;;;13.05;8.88;;;;;;;;;;5005150;28;20220;-79
2022/04/14 04:13:36;;;;;;;13.48;8.77;;;;;;;;;;4997675;28;20053;-78
2022/04/14 04:16:01;;;;;;;13.93;9.13;;;;;;;;;;5006693;28;20026;-79
2022/04/14 04:18:30;;;;;;;13.38;9.10;;;;;;;;;;5003343;28;20523;-78
2022/04/14 04:20:56;;;;;;;14.55;8.65;;;;;;;;;;5008487;28;20116;-79
2022/04/14 04:23:22;;;;;;;13.48;9.13;;;;;;;;;;4998825;28;20723;-79
2022/04/14 04:25:49;;;;;;;13.93;8.80;;;;;;;;;;5006415;28;20041;-78
2022/04/14 04:28:15;;;;;;;19.75;9.27;;;;;;;;;;5004236;28;20087;-78
2022/04/14 04:30:41;;;;;;;17.25;10.23;;;;;;;;;;5003456;28;20544;-78
2022/04/14 04:33:07;;;;;;;15.75;8.43;;;;;;;;;;5004840;28;20040;-79
2022/04/14 04:35:33;;;;;;;14.68;8.70;;;;;;;;;;5012078;28;20033;-78
2022/04/14 04:37:59;;;;;;;14.00;8.48;;;;;;;;;;5006526;28;20501;-78
2022/04/14 04:40:24;;;;;;;12.75;8.48;;;;;;;;;;5001455;28;20481;-78
2022/04/14 04:42:50;;;;;;;14.50;8.82;;;;;;;;;;5007710;28;20018;-78
2022/04/14 04:45:20;;;;;;;10.98;8.45;;;;;;;;;;5008397;28;20476;-78
2022/04/14 04:47:46;;;;;;;11.73;8.20;;;;;;;;;;5011496;28;20037;-78
2022/04/14 04:50:12;;;;;;;11.88;9.10;;;;;;;;;;5008489;28;20030;-78
2022/04/14 04:52:38;;;;;;;11.35;8.23;;;;;;;;;;5008831;28;20022;-78
2022/04/14 04:55:04;;;;;;;13.02;9.00;;;;;;;;;;5009061;28;20084;-78
2022/04/14 04:57:29;;;;;;;11.70;8.48;;;;;;;;;;5008062;28;20026;-78
2022/04/14 04:59:55;;;;;;;14.75;9.02;;;;;;;;;;5009081;28;20038;-79
2022/04/14 05:02:21;;;;;;;11.90;8.38;;;;;;;;;;5005726;28;20018;-79
2022/04/14 05:04:47;;;;;;;17.33;9.02;;;;;;;;;;5008830;28;20017;-79
2022/04/14 05:07:13;;;;;;;16.48;9.20;;;;;;;;;;5010438;28;20030;-78
2022/04/14 05:09:39;;;;;;;14.32;8.90;;;;;;;;;;5005886;28;20072;-78
2022/04/14 05:12:05;;;;;;;15.70;9.30;;;;;;;;;;5005804;28;20141;-78
2022/04/14 05:14:31;;;;;;;15.30;9.55;;;;;;;;;;5019038;28;20408;-78
2022/04/14 05:16:57;;;;;;;15.40;9.45;;;;;;;;;;5009565;28;20030;-78
2022/04/14 05:19:26;;;;;;;14.88;8.80;;;;;;;;;;5012997;28;20019;-78
2022/04/14 05:21:52;;;;;;;14.18;8.73;;;;;;;;;;5005019;28;20151;-79
2022/04/14 05:24:18;;;;;;;14.73;9.52;;;;;;;;;;5008457;28;20220;-79
2022/04/14 05:26:44;;;;;;;15.13;9.07;;;;;;;;;;5002148;28;20042;-79
2022/04/14 05:29:10;;;;;;;16.05;9.15;;;;;;;;;;5007304;28;20369;-78
2022/04/14 05:31:36;;;;;;;17.08;9.10;;;;;;;;;;5009221;28;20532;-78
2022/04/14 05:34:02;;;;;;;14.45;8.80;;;;;;;;;;5006397;28;20018;-78
2022/04/14 05:36:28;;;;;;;13.63;9.13;;;;;;;;;;5014582;28;20033;-78
2022/04/14 05:38:53;;;;;;;16.48;9.07;;;;;;;;;;5009654;28;20029;-78
2022/04/14 05:41:19;;;;;;;14.57;8.98;;;;;;;;;;5007616;28;20018;-78
2022/04/14 05:43:45;;;;;;;12.50;8.45;;;;;;;;;;5012025;28;20370;-78
2022/04/14 05:46:11;;;;;;;13.07;9.02;;;;;;;;;;5008946;28;20125;-78
2022/04/14 05:48:37;;;;;;;12.95;9.15;;;;;;;;;;5006428;28;20042;-78
2022/04/14 05:51:03;;;;;;;13.13;8.82;;;;;;;;;;5009087;28;20028;-79
2022/04/14 05:53:30;;;;;;;17.45;9.05;;;;;;;;;;5006838;28;20029;-78
2022/04/14 05:55:56;;;;;;;15.68;8.95;;;;;;;;;;5012610;28;20096;-79
2022/04/14 05:58:22;;;;;;;15.27;9.13;;;;;;;;;;5010262;28;20022;-78
2022/04/14 06:00:48;;;;;;;22.65;8.82;;;;;;;;;;4997560;28;20026;-79
2022/04/14 06:03:14;;;;;;;16.05;9.00;;;;;;;;;;5009131;28;20027;-78
2022/04/14 06:05:40;;;;;;;16.17;9.15;;;;;;;;;;5011662;28;20030;-79
2022/04/14 06:08:06;;;;;;;10.93;8.18;;;;;;;;;;5006806;28;20087;-78
2022/04/14 06:10:34;;;;;;;15.50;9.32;;;;;;;;;;5010021;28;20124;-78
2022/04/14 06:13:00;;;;;;;12.13;8.13;;;;;;;;;;5011711;28;20710;-78
2022/04/14 06:15:26;;;;;;;14.23;8.20;;;;;;;;;;5007283;28;20061;-77
2022/04/14 06:17:52;;;;;;;15.55;8.80;;;;;;;;;;5005772;28;20041;-78
2022/04/14 06:20:18;;;;;;;16.15;8.32;;;;;;;;;;5006263;28;20239;-78
2022/04/14 06:22:45;;;;;;;14.65;8.90;;;;;;;;;;5009845;28;20026;-78
2022/04/14 06:25:17;;;;;;;16.08;9.40;;;;;;;;;;5003070;28;20070;-79
2022/04/14 06:27:43;;;;;;;14.30;8.70;;;;;;;;;;5011063;28;20033;-78
2022/04/14 06:30:10;;;;;;;12.32;8.48;;;;;;;;;;5014481;28;20112;-78
2022/04/14 06:32:37;;;;;;;11.65;8.23;;;;;;;;;;5008501;28;20041;-78
2022/04/14 06:35:03;;;;;;;15.57;8.85;;;;;;;;;;5010141;28;20061;-78
2022/04/14 06:37:29;;;;;;;12.65;8.45;;;;;;;;;;5008796;28;20389;-79
2022/04/14 06:39:55;;;;;;;11.65;8.60;;;;;;;;;;5005458;28;20174;-83
2022/04/14 06:42:24;;;;;;;13.45;8.35;;;;;;;;;;5006234;28;20127;-74
2022/04/14 06:44:50;;;;;;;10.60;7.63;;;;;;;;;;5000301;28;20033;-77
2022/04/14 06:47:16;;;;;;;13.50;8.20;;;;;;;;;;5007944;28;20033;-79
2022/04/14 06:49:42;;;;;;;13.38;8.60;;;;;;;;;;5011218;28;20630;-79
2022/04/14 06:52:08;;;;;;;14.40;8.38;;;;;;;;;;5013830;28;20029;-79
2022/04/14 06:54:34;;;;;;;17.02;9.15;;;;;;;;;;5005020;28;20026;-79
2022/04/14 06:57:00;;;;;;;17.73;9.00;;;;;;;;;;5009936;28;20121;-79
2022/04/14 06:59:27;;;;;;;12.07;8.15;;;;;;;;;;5008604;28;20105;-78
2022/04/14 07:01:53;;;;;;;13.45;8.65;;;;;;;;;;5008959;28;20029;-78
2022/04/14 07:04:19;;;;;;;17.08;8.55;;;;;;;;;;5009841;28;20144;-82
2022/04/14 07:06:46;;;;;;;16.25;8.43;;;;;;;;;;5009789;28;20100;-79
2022/04/14 07:09:12;;;;;;;12.68;8.23;;;;;;;;;;5011663;28;20084;-78
2022/04/14 07:11:44;;;;;;;15.05;8.63;;;;;;;;;;5004117;28;20053;-78
2022/04/14 07:14:10;;;;;;;12.65;8.25;;;;;;;;;;5002314;28;20097;-78
2022/04/14 07:16:36;;;;;;;15.02;8.20;;;;;;;;;;4996556;28;20126;-77
2022/04/14 07:19:02;;;;;;;11.07;7.65;;;;;;;;;;4997104;28;20018;-78
2022/04/14 07:21:28;;;;;;;12.60;8.43;;;;;;;;;;5002977;28;20465;-78
2022/04/14 07:23:54;;;;;;;14.20;8.40;;;;;;;;;;5008580;28;20210;-78
2022/04/14 07:26:19;;;;;;;11.48;8.38;;;;;;;;;;4995271;28;20477;-77
2022/04/14 07:28:45;;;;;;;14.52;8.18;;;;;;;;;;5000998;28;20027;-78
2022/04/14 07:31:11;;;;;;;13.30;7.43;;;;;;;;;;4997946;28;20034;-78
2022/04/14 07:33:37;;;;;;;12.73;7.90;;;;;;;;;;4993673;28;20034;-78
2022/04/14 07:36:04;;;;;;;12.13;8.25;;;;;;;;;;4999253;28;20072;-78
2022/04/14 07:38:29;;;;;;;9.88;7.82;;;;;;;;;;5003874;28;20543;-78
2022/04/14 07:41:00;;;;;;;11.38;7.47;;;;;;;;;;4994195;28;20030;-78
2022/04/14 07:43:26;;;;;;;10.13;7.70;;;;;;;;;;4996256;28;20070;-78
2022/04/14 07:45:52;;;;;;;13.07;7.53;;;;;;;;;;5005624;28;20083;-78
2022/04/14 07:48:21;;;;;;;11.00;6.60;;;;;;;;;;4998811;28;20495;-78
2022/04/14 07:50:47;;;;;;;11.50;6.60;;;;;;;;;;5008421;28;20034;-78
2022/04/14 07:53:13;;;;;;;11.70;6.32;;;;;;;;;;5002947;28;20040;-78
2022/04/14 07:55:39;;;;;;;10.90;6.15;;;;;;;;;;4994174;28;20030;-78
2022/04/14 07:58:09;;;;;;;11.82;6.25;;;;;;;;;;4993120;28;20022;-79
2022/04/14 08:00:35;;;;;;;9.38;6.03;;;;;;;;;;4997248;28;20520;-78
2022/04/14 08:03:02;;;;;;;8.85;5.30;;;;;;;;;;4996009;28;20452;-78
2022/04/14 08:05:36;;;;;;;8.25;4.85;;;;;;;;;;4991733;28;20092;-78
2022/04/14 08:08:02;;;;;;;7.80;4.85;;;;;;;;;;4998134;28;20391;-78
2022/04/14 08:10:29;;;;;;;9.80;5.30;;;;;;;;;;4999824;28;20050;-77
2022/04/14 08:12:55;;;;;;;6.80;4.82;;;;;;;;;;4995643;28;20449;-77
2022/04/14 08:15:21;;;;;;;8.70;5.10;;;;;;;;;;5001285;28;20026;-77
2022/04/14 08:17:48;;;;;;;10.05;5.55;;;;;;;;;;4999471;28;20121;-76
2022/04/14 08:20:15;;;;;;;8.18;4.70;;;;;;;;;;4995172;28;20481;-76
2022/04/14 08:22:44;;;;;;;7.88;4.93;;;;;;;;;;5003392;28;20080;-77
2022/04/14 08:25:10;;;;;;;7.35;4.68;;;;;;;;;;4996785;28;20414;-76
2022/04/14 08:27:36;;;;;;;9.35;4.47;;;;;;;;;;5006539;28;20034;-76
2022/04/14 08:30:03;;;;;;;8.32;4.75;;;;;;;;;;5000619;28;20022;-76
2022/04/14 08:32:29;;;;;;;7.00;4.22;;;;;;;;;;5007898;28;20033;-76
2022/04/14 08:34:55;;;;;;;9.45;4.18;;;;;;;;;;4991883;28;20091;-77
2022/04/14 08:37:21;;;;;;;7.80;3.92;;;;;;;;;;5003021;28;20027;-77
2022/04/14 08:39:46;;;;;;;8.48;4.65;;;;;;;;;;4993707;28;20466;-77
2022/04/14 08:42:15;;;;;;;11.60;4.32;;;;;;;;;;4996931;28;20038;-77
2022/04/14 08:44:46;;;;;;;8.20;4.03;;;;;;;;;;4996272;28;20026;-77
2022/04/14 08:47:12;;;;;;;5.78;4.30;;;;;;;;;;5015510;28;20040;-77
2022/04/14 08:49:38;;;;;;;6.10;4.65;;;;;;;;;;5006415;28;20030;-77
2022/04/14 08:52:05;;;;;;;7.05;4.63;;;;;;;;;;4995264;28;20029;-77
2022/04/14 08:54:31;;;;;;;5.55;4.03;;;;;;;;;;4990738;28;20080;-77
2022/04/14 08:56:58;;;;;;;7.80;4.57;;;;;;;;;;4999707;28;20092;-77
2022/04/14 08:59:25;;;;;;;6.18;4.32;;;;;;;;;;4997963;28;20037;-77
2022/04/14 09:01:51;;;;;;;9.85;4.32;;;;;;;;;;4993814;28;20034;-77
2022/04/14 09:04:17;;;;;;;8.18;5.20;;;;;;;;;;5002587;28;20034;-77
2022/04/14 09:06:43;;;;;;;9.93;5.68;;;;;;;;;;4997437;28;20042;-77
2022/04/14 09:09:09;;;;;;;7.28;5.20;;;;;;;;;;5000851;28;20058;-76
2022/04/14 09:11:35;;;;;;;8.63;5.25;;;;;;;;;;5000028;28;20041;-77
2022/04/14 09:14:01;;;;;;;8.30;4.88;;;;;;;;;;5007713;28;20030;-77
2022/04/14 09:16:30;;;;;;;8.43;4.70;;;;;;;;;;5000164;28;20034;-77
2022/04/14 09:18:56;;;;;;;6.88;4.75;;;;;;;;;;5006801;28;20105;-77
2022/04/14 09:21:22;;;;;;;6.18;4.07;;;;;;;;;;5003340;28;20667;-77
2022/04/14 09:23:54;;;;;;;6.45;4.18;;;;;;;;;;5000928;28;20463;-77
2022/04/14 09:26:23;;;;;;;5.90;3.85;;;;;;;;;;5002370;28;20033;-77
2022/04/14 09:29:03;;;;;;;8.63;4.30;;;;;;;;;;5002265;28;20079;-77
2022/04/14 09:31:29;;;;;;;5.63;3.75;;;;;;;;;;5002047;28;20085;-77
2022/04/14 09:33:55;;;;;;;8.35;3.70;;;;;;;;;;4999078;28;20053;-77
2022/04/14 09:36:23;;;;;;;6.35;3.40;;;;;;;;;;5001278;28;20018;-77
2022/04/14 09:38:56;;;;;;;4.93;3.00;;;;;;;;;;5003730;28;20022;-78
2022/04/14 09:41:28;;;;;;;4.03;2.92;;;;;;;;;;5008646;28;20072;-77
2022/04/14 09:43:55;;;;;;;4.25;3.13;;;;;;;;;;5000203;28;20049;-77
2022/04/14 09:46:21;;;;;;;4.80;3.35;;;;;;;;;;4999526;28;20038;-77
2022/04/14 09:49:00;;;;;;;6.13;3.40;;;;;;;;;;4999304;28;20044;-77
2022/04/14 09:51:26;;;;;;;7.28;3.55;;;;;;;;;;4994089;28;20079;-77
2022/04/14 09:54:03;;;;;;;6.93;3.67;;;;;;;;;;5000666;28;20099;-77
2022/04/14 09:56:39;;;;;;;7.38;4.25;;;;;;;;;;4999502;28;20025;-77
2022/04/14 09:59:07;;;;;;;8.15;4.40;;;;;;;;;;5007380;28;20049;-77
2022/04/14 10:01:33;;;;;;;6.72;4.55;;;;;;;;;;5001205;28;20423;-77
2022/04/14 10:03:58;;;;;;;6.40;4.55;;;;;;;;;;4994672;28;20109;-77
2022/04/14 10:06:24;;;;;;;7.07;5.22;;;;;;;;;;4996775;28;20031;-77
2022/04/14 10:08:51;;;;;;;8.98;5.00;;;;;;;;;;5002291;28;20046;-77
2022/04/14 10:11:23;;;;;;;6.82;4.53;;;;;;;;;;5001349;28;20076;-77
2022/04/14 10:13:49;;;;;;;8.68;4.53;;;;;;;;;;5003509;28;20034;-77
2022/04/14 10:16:18;;;;;;;8.82;4.82;;;;;;;;;;5001619;28;20049;-77
2022/04/14 10:18:45;;;;;;;7.13;4.40;;;;;;;;;;4998096;28;20034;-77
2022/04/14 10:21:11;;;;;;;6.20;4.68;;;;;;;;;;5006895;28;20029;-77
2022/04/14 10:23:37;;;;;;;11.85;4.78;;;;;;;;;;5004130;28;20133;-77
2022/04/14 10:26:03;;;;;;;5.68;4.45;;;;;;;;;;5001549;28;20496;-77
2022/04/14 10:28:29;;;;;;;5.28;4.22;;;;;;;;;;4997287;28;20026;-77
2022/04/14 10:30:55;;;;;;;5.88;4.53;;;;;;;;;;5002509;28;20026;-76
2022/04/14 10:33:22;;;;;;;5.15;4.00;;;;;;;;;;4995612;28;20034;-77
2022/04/14 10:35:48;;;;;;;5.93;3.67;;;;;;;;;;5000592;28;20115;-77
2022/04/14 10:38:33;;;;;;;6.55;3.20;;;;;;;;;;5007455;28;20421;-77
2022/04/14 10:41:01;;;;;;;6.03;3.20;;;;;;;;;;5001240;28;20027;-78
2022/04/14 10:43:28;;;;;;;4.65;2.83;;;;;;;;;;5007554;28;20018;-77
2022/04/14 10:45:56;;;;;;;5.70;3.00;;;;;;;;;;4996144;28;20109;-77
2022/04/14 10:48:29;;;;;;;4.28;2.60;;;;;;;;;;4996236;28;20469;-78
2022/04/14 10:51:13;;;;;;;3.50;2.40;;;;;;;;;;5009094;28;20069;-77
2022/04/14 10:53:58;;;;;;;2.80;1.60;;;;;;;;;;5004424;28;20034;-77
2022/04/14 10:56:45;;;;;;;2.03;1.58;;;;;;;;;;4995324;28;20456;-77
2022/04/14 10:59:12;;;;;;;2.40;1.42;;;;;;;;;;5006347;28;20024;-77
2022/04/14 11:01:47;;;;;;;2.55;1.10;;;;;;;;;;4999925;28;20392;-77
2022/04/14 11:04:26;;;;;;;2.70;1.15;;;;;;;;;;4996662;28;20029;-77
2022/04/14 11:06:54;;;;;;;1.70;1.27;;;;;;;;;;4998981;28;20030;-77
2022/04/14 11:09:39;;;;;;;2.17;1.42;;;;;;;;;;4995873;28;20042;-77
2022/04/14 11:12:05;;;;;;;2.88;1.27;;;;;;;;;;4990904;28;20121;-77
2022/04/14 11:14:34;;;;;;;3.28;1.40;;;;;;;;;;5008267;28;20460;-77
2022/04/14 11:17:00;;;;;;;4.22;1.25;;;;;;;;;;4993227;28;20034;-77
2022/04/14 11:19:27;;;;;;;2.70;1.20;;;;;;;;;;4998348;28;20121;-77
2022/04/14 11:22:02;;;;;;;1.73;1.10;;;;;;;;;;5006073;28;20038;-77
2022/04/14 11:24:40;;;;;;;1.55;1.30;;;;;;;;;;5010802;28;20029;-77
2022/04/14 11:27:18;;;;;;;2.92;1.40;;;;;;;;;;5004046;28;20096;-77
2022/04/14 11:29:48;;;;;;;1.63;1.40;;;;;;;;;;5001555;28;20030;-77
2022/04/14 11:32:15;;;;;;;1.42;1.20;;;;;;;;;;4997212;28;20032;-77
2022/04/14 11:34:41;;;;;;;1.70;1.27;;;;;;;;;;4999287;28;20487;-78
2022/04/14 11:37:26;;;;;;;1.60;1.00;;;;;;;;;;5003801;28;20465;-78
2022/04/14 11:40:10;;;;;;;2.15;0.90;;;;;;;;;;5001835;28;20041;-77
2022/04/14 11:42:36;;;;;;;0.82;0.82;;;;;;;;;;5003033;28;20770;-77
2022/04/14 11:45:02;;;;;;;2.55;1.10;;;;;;;;;;4998883;28;20045;-77
2022/04/14 11:47:28;;;;;;;2.95;0.95;;;;;;;;;;5000927;28;20025;-77
2022/04/14 11:49:54;;;;;;;1.42;0.90;;;;;;;;;;4996594;28;20043;-77
2022/04/14 11:52:24;;;;;;;1.08;0.95;;;;;;;;;;4998155;28;20116;-77
2022/04/14 11:54:50;;;;;;;2.03;0.90;;;;;;;;;;4995417;28;20036;-76
2022/04/14 11:57:19;;;;;;;2.55;1.40;;;;;;;;;;4999199;28;20026;-78
2022/04/14 11:59:47;;;;;;;2.15;0.98;;;;;;;;;;4996042;28;20544;-77
2022/04/14 12:02:14;;;;;;;2.70;1.30;;;;;;;;;;4993680;28;20374;-77
2022/04/14 12:04:44;;;;;;;3.80;1.30;;;;;;;;;;4996420;28;20045;-78
2022/04/14 12:07:10;;;;;;;2.88;1.40;;;;;;;;;;4994228;28;20499;-78
2022/04/14 12:09:43;;;;;;;3.20;1.50;;;;;;;;;;5001915;28;20038;-77
2022/04/14 12:12:18;;;;;;;4.75;1.80;;;;;;;;;;4997679;28;20100;-77
2022/04/14 12:14:46;;;;;;;2.45;1.65;;;;;;;;;;4997270;28;20026;-77
2022/04/14 12:17:12;;;;;;;8.45;2.35;;;;;;;;;;5003956;28;20034;-77
2022/04/14 12:19:46;;;;;;;4.80;2.63;;;;;;;;;;4995053;28;20044;-78
2022/04/14 12:22:12;;;;;;;4.45;2.50;;;;;;;;;;5004215;28;20032;-77
2022/04/14 12:24:38;;;;;;;4.20;3.25;;;;;;;;;;5000280;28;20018;-78
2022/04/14 12:27:06;;;;;;;4.38;3.08;;;;;;;;;;5003597;28;20026;-77
2022/04/14 12:29:32;;;;;;;5.78;3.35;;;;;;;;;;5000280;28;20022;-78
2022/04/14 12:32:09;;;;;;;5.10;3.53;;;;;;;;;;5000248;28;20029;-78
2022/04/14 12:34:35;;;;;;;4.88;3.80;;;;;;;;;;4998954;28;20121;-78
2022/04/14 12:37:08;;;;;;;5.95;4.40;;;;;;;;;;4997693;28;20018;-77
2022/04/14 12:39:34;;;;;;;7.10;4.53;;;;;;;;;;4998265;28;20469;-78
2022/04/14 12:42:00;;;;;;;4.68;4.18;;;;;;;;;;4997370;28;20077;-77
2022/04/14 12:44:26;;;;;;;6.95;4.40;;;;;;;;;;4992851;28;20243;-77
2022/04/14 12:46:52;;;;;;;7.68;5.22;;;;;;;;;;5004271;28;20033;-77
2022/04/14 12:49:29;;;;;;;6.10;5.05;;;;;;;;;;5006648;28;20037;-78
2022/04/14 12:51:59;;;;;;;7.60;5.35;;;;;;;;;;4997785;28;20025;-77
2022/04/14 12:54:26;;;;;;;7.55;5.07;;;;;;;;;;5002955;28;20022;-77
2022/04/14 12:57:02;;;;;;;7.00;5.28;;;;;;;;;;5009543;28;20033;-77
2022/04/14 12:59:29;;;;;;;7.35;5.93;;;;;;;;;;4994307;28;20050;-78
2022/04/14 13:01:56;;;;;;;9.75;5.18;;;;;;;;;;5002841;28;20029;-77
2022/04/14 13:04:31;;;;;;;8.05;5.32;;;;;;;;;;5000425;28;20034;-77
2022/04/14 13:06:57;;;;;;;8.35;4.90;;;;;;;;;;5002719;28;20034;-78
2022/04/14 13:09:24;;;;;;;8.88;4.68;;;;;;;;;;5002965;28;20096;-78
2022/04/14 13:11:49;;;;;;;8.23;5.00;;;;;;;;;;4999605;28;22960;-77
2022/04/14 13:14:16;;;;;;;7.70;4.72;;;;;;;;;;5008609;28;20469;-77
2022/04/14 13:16:41;;;;;;;6.88;5.00;;;;;;;;;;5005280;28;20088;-77
2022/04/14 13:19:07;;;;;;;7.47;4.78;;;;;;;;;;5000998;28;20121;-77
2022/04/14 13:21:33;;;;;;;7.45;4.88;;;;;;;;;;4997802;28;20034;-77
2022/04/14 13:23:59;;;;;;;6.25;4.68;;;;;;;;;;5008275;28;20085;-77
2022/04/14 13:26:25;;;;;;;5.18;4.38;;;;;;;;;;5000006;28;20026;-77
2022/04/14 13:28:51;;;;;;;6.80;4.38;;;;;;;;;;5000040;28;20057;-78
2022/04/14 13:31:17;;;;;;;5.90;3.85;;;;;;;;;;5001046;28;20121;-78
2022/04/14 13:33:43;;;;;;;7.18;3.85;;;;;;;;;;5008113;28;20469;-77
2022/04/14 13:36:08;;;;;;;5.47;3.17;;;;;;;;;;4995649;28;20497;-77
2022/04/14 13:38:34;;;;;;;4.65;3.40;;;;;;;;;;4999260;28;20032;-78
2022/04/14 13:41:00;;;;;;;3.42;3.13;;;;;;;;;;5003750;28;20030;-77
2022/04/14 13:43:26;;;;;;;4.45;3.17;;;;;;;;;;4999573;28;20661;-77
2022/04/14 13:45:52;;;;;;;4.43;3.22;;;;;;;;;;4999493;28;20035;-77
2022/04/14 13:48:18;;;;;;;4.10;2.78;;;;;;;;;;5006008;28;20030;-77
2022/04/14 13:50:45;;;;;;;4.97;2.65;;;;;;;;;;4996461;28;20385;-77
2022/04/14 13:53:13;;;;;;;4.43;3.03;;;;;;;;;;5002232;28;20038;-78
2022/04/14 13:55:39;;;;;;;3.78;2.88;;;;;;;;;;4997879;28;20113;-77
2022/04/14 13:58:05;;;;;;;4.97;3.00;;;;;;;;;;4995318;28;20463;-77
2022/04/14 14:00:31;;;;;;;6.72;3.47;;;;;;;;;;5000724;28;20040;-77
2022/04/14 14:02:57;;;;;;;6.97;3.10;;;;;;;;;;5007106;28;20032;-77
2022/04/14 14:05:23;;;;;;;8.45;4.35;;;;;;;;;;5003138;28;20473;-77
2022/04/14 14:07:50;;;;;;;9.45;4.03;;;;;;;;;;4999288;28;20491;-77
2022/04/14 14:10:16;;;;;;;7.28;4.95;;;;;;;;;;4997733;28;20120;-77
2022/04/14 14:12:42;;;;;;;15.00;9.20;;;;;;;;;;4999131;28;20045;-77
2022/04/14 14:15:08;;;;;;;9.27;5.22;;;;;;;;;;5002631;28;20041;-78
2022/04/14 14:17:38;;;;;;;11.02;4.28;;;;;;;;;;5003353;28;20064;-77
2022/04/14 14:20:24;;;;;;;12.80;3.50;;;;;;;;;;4998342;28;20477;-78
2022/04/14 14:23:09;;;;;;;7.03;3.28;;;;;;;;;;4995807;28;20254;-79
2022/04/14 14:25:40;;;;;;;4.88;2.38;;;;;;;;;;5007018;28;20083;-79
2022/04/14 14:31:02;;;;;;;3.80;2.38;;;;;;;;;;4997421;28;20029;-74
2022/04/14 14:33:37;;;;;;;7.90;3.28;;;;;;;;;;5004521;28;20509;-76